createdAt,value
2017-09-16T00:02:28.480Z,85.20
2017-09-16T00:05:03.161Z,85.10
2017-09-16T00:07:37.690Z,84.30
2017-09-16T00:10:12.448Z,84.40
2017-09-16T00:12:46.059Z,83.70
2017-09-16T00:15:26.562Z,83.90
2017-09-16T00:18:02.842Z,83.70
2017-09-16T00:20:37.302Z,83.80
2017-09-16T00:23:11.831Z,83.70
2017-09-16T00:25:45.477Z,83.60
2017-09-16T00:28:19.261Z,83.60
2017-09-16T00:30:53.995Z,85.00
2017-09-16T00:33:30.531Z,84.90
2017-09-16T00:36:04.344Z,85.30
2017-09-16T00:38:39.173Z,84.30
2017-09-16T00:41:12.958Z,85.00
2017-09-16T00:43:46.756Z,86.80
2017-09-16T00:46:20.590Z,86.70
2017-09-16T00:48:55.054Z,86.20
2017-09-16T00:51:28.779Z,85.70
2017-09-16T00:54:03.021Z,86.00
2017-09-16T00:56:37.308Z,86.60
2017-09-16T00:59:11.076Z,85.10
2017-09-16T01:01:44.771Z,85.40
2017-09-16T01:04:18.354Z,85.00
2017-09-16T01:06:52.127Z,85.70
2017-09-16T01:09:25.928Z,86.90
2017-09-16T01:11:59.593Z,85.90
2017-09-16T01:14:33.285Z,86.40
2017-09-16T01:17:10.962Z,86.70
2017-09-16T01:19:45.410Z,86.40
2017-09-16T01:22:19.262Z,86.20
2017-09-16T01:24:52.990Z,87.00
2017-09-16T01:27:26.660Z,86.60
2017-09-16T01:30:00.763Z,87.20
2017-09-16T01:32:35.518Z,87.20
2017-09-16T01:35:09.217Z,87.30
2017-09-16T01:37:43.005Z,86.60
2017-09-16T01:40:17.534Z,85.60
2017-09-16T01:42:52.212Z,85.40
2017-09-16T01:45:26.437Z,85.40
2017-09-16T01:48:00.313Z,85.90
2017-09-16T01:50:34.923Z,88.00
2017-09-16T01:53:08.615Z,87.90
2017-09-16T01:55:43.263Z,88.10
2017-09-16T01:58:18.507Z,88.50
2017-09-16T02:00:52.379Z,90.30
2017-09-16T02:03:27.263Z,90.30
2017-09-16T02:06:01.117Z,89.80
2017-09-16T02:08:35.493Z,89.50
2017-09-16T02:11:09.154Z,90.00
2017-09-16T02:13:43.531Z,90.50
2017-09-16T02:16:17.410Z,90.80
2017-09-16T02:18:51.825Z,90.10
2017-09-16T02:21:26.288Z,89.40
2017-09-16T02:24:00.708Z,88.90
2017-09-16T02:26:35.015Z,88.20
2017-09-16T02:29:09.202Z,87.60
2017-09-16T02:31:43.749Z,87.50
2017-09-16T02:34:17.623Z,87.20
2017-09-16T02:36:51.217Z,87.20
2017-09-16T02:39:24.952Z,87.70
2017-09-16T02:41:59.433Z,88.60
2017-09-16T02:44:33.657Z,88.20
2017-09-16T02:47:08.060Z,87.80
2017-09-16T02:49:41.830Z,87.60
2017-09-16T02:52:16.403Z,88.00
2017-09-16T02:54:50.284Z,87.90
2017-09-16T02:57:24.794Z,87.70
2017-09-16T02:59:58.574Z,88.70
2017-09-16T03:02:34.027Z,87.80
2017-09-16T03:05:07.588Z,87.70
2017-09-16T03:07:41.111Z,87.70
2017-09-16T03:10:15.643Z,88.10
2017-09-16T03:12:51.623Z,88.50
2017-09-16T03:15:26.860Z,88.30
2017-09-16T03:18:01.365Z,87.80
2017-09-16T03:20:35.191Z,87.70
2017-09-16T03:23:08.980Z,88.20
2017-09-16T03:25:42.727Z,88.50
2017-09-16T03:28:16.550Z,88.60
2017-09-16T03:30:50.313Z,89.20
2017-09-16T03:33:24.152Z,88.00
2017-09-16T03:35:58.636Z,88.30
2017-09-16T03:38:32.536Z,88.20
2017-09-16T03:41:06.348Z,88.90
2017-09-16T03:43:40.373Z,88.70
2017-09-16T03:46:14.180Z,88.70
2017-09-16T03:48:48.752Z,89.20
2017-09-16T03:51:22.527Z,89.20
2017-09-16T03:53:56.184Z,89.30
2017-09-16T03:56:30.717Z,88.40
2017-09-16T03:59:05.272Z,89.40
2017-09-16T04:01:51.057Z,89.10
2017-09-16T04:04:26.463Z,89.30
2017-09-16T04:07:01.858Z,89.00
2017-09-16T04:09:36.289Z,89.10
2017-09-16T04:12:11.383Z,88.90
2017-09-16T04:14:45.203Z,88.50
2017-09-16T04:17:19.354Z,88.50
2017-09-16T04:19:53.129Z,88.30
2017-09-16T04:22:26.798Z,88.80
2017-09-16T04:25:00.735Z,89.50
2017-09-16T04:27:35.780Z,90.00
2017-09-16T04:30:09.507Z,89.70
2017-09-16T04:32:43.239Z,89.00
2017-09-16T04:35:18.622Z,90.10
2017-09-16T04:37:52.350Z,90.10
2017-09-16T04:40:26.990Z,89.90
2017-09-16T04:43:02.230Z,89.80
2017-09-16T04:45:36.046Z,89.70
2017-09-16T04:48:10.392Z,89.60
2017-09-16T04:50:44.807Z,89.60
2017-09-16T04:53:19.375Z,88.90
2017-09-16T04:55:53.265Z,88.00
2017-09-16T04:58:27.047Z,88.20
2017-09-16T05:01:01.588Z,89.30
2017-09-16T05:03:35.398Z,89.20
2017-09-16T05:06:10.166Z,90.80
2017-09-16T05:08:44.039Z,90.70
2017-09-16T05:11:18.611Z,90.50
2017-09-16T05:13:52.384Z,90.40
2017-09-16T05:16:25.978Z,90.60
2017-09-16T05:18:59.677Z,91.50
2017-09-16T05:21:33.429Z,91.00
2017-09-16T05:24:08.016Z,90.90
2017-09-16T05:26:41.808Z,90.90
2017-09-16T05:29:16.462Z,90.50
2017-09-16T05:31:50.220Z,90.40
2017-09-16T05:34:23.839Z,90.20
2017-09-16T05:36:57.615Z,90.50
2017-09-16T05:39:31.338Z,90.30
2017-09-16T05:42:06.042Z,90.30
2017-09-16T05:44:39.956Z,90.30
2017-09-16T05:47:14.426Z,90.40
2017-09-16T05:49:48.886Z,90.60
2017-09-16T05:52:22.542Z,90.10
2017-09-16T05:54:56.366Z,90.10
2017-09-16T05:57:30.838Z,90.10
2017-09-16T06:00:05.316Z,90.90
2017-09-16T06:02:39.019Z,90.60
2017-09-16T06:05:13.918Z,90.70
2017-09-16T06:07:48.046Z,90.50
2017-09-16T06:10:21.817Z,91.40
2017-09-16T06:12:56.360Z,91.20
2017-09-16T06:15:30.034Z,91.10
2017-09-16T06:18:03.801Z,90.80
2017-09-16T06:20:38.037Z,90.60
2017-09-16T06:23:11.871Z,90.80
2017-09-16T06:25:45.900Z,90.60
2017-09-16T06:28:19.631Z,90.60
2017-09-16T06:30:54.274Z,90.90
2017-09-16T06:33:27.906Z,91.00
2017-09-16T06:36:01.748Z,90.90
2017-09-16T06:38:38.116Z,90.70
2017-09-16T06:41:11.798Z,91.30
2017-09-16T06:43:45.694Z,92.00
2017-09-16T06:46:20.397Z,92.10
2017-09-16T06:48:54.038Z,91.50
2017-09-16T06:51:27.905Z,91.30
2017-09-16T06:54:01.775Z,91.40
2017-09-16T06:56:36.149Z,91.50
2017-09-16T06:59:10.496Z,91.50
2017-09-16T07:01:44.983Z,91.40
2017-09-16T07:04:18.590Z,91.50
2017-09-16T07:06:52.724Z,91.80
2017-09-16T07:09:26.496Z,91.60
2017-09-16T07:12:01.134Z,91.00
2017-09-16T07:14:35.150Z,91.00
2017-09-16T07:17:09.575Z,90.90
2017-09-16T07:19:44.618Z,90.90
2017-09-16T07:22:18.418Z,90.40
2017-09-16T07:24:52.395Z,90.90
2017-09-16T07:27:26.932Z,91.20
2017-09-16T07:30:00.629Z,91.20
2017-09-16T07:32:34.413Z,91.20
2017-09-16T07:35:09.020Z,90.80
2017-09-16T07:37:42.694Z,90.80
2017-09-16T07:40:17.263Z,90.40
2017-09-16T07:42:52.424Z,90.40
2017-09-16T07:45:26.081Z,90.60
2017-09-16T07:48:00.650Z,90.50
2017-09-16T07:50:34.342Z,90.40
2017-09-16T07:53:08.074Z,90.70
2017-09-16T07:55:41.873Z,89.80
2017-09-16T07:58:16.449Z,90.50
2017-09-16T08:00:50.195Z,90.50
2017-09-16T08:03:24.726Z,90.80
2017-09-16T08:05:58.334Z,90.90
2017-09-16T08:08:32.914Z,91.30
2017-09-16T08:11:06.712Z,91.30
2017-09-16T08:13:40.362Z,91.60
2017-09-16T08:16:14.091Z,92.00
2017-09-16T08:18:48.159Z,91.80
2017-09-16T08:21:21.873Z,91.60
2017-09-16T08:23:56.563Z,91.80
2017-09-16T08:26:31.160Z,92.30
2017-09-16T08:29:05.521Z,92.70
2017-09-16T08:31:39.228Z,93.00
2017-09-16T08:34:13.693Z,92.50
2017-09-16T08:36:47.525Z,92.50
2017-09-16T08:39:21.955Z,92.20
2017-09-16T08:41:55.502Z,92.20
2017-09-16T08:44:29.168Z,92.00
2017-09-16T08:47:02.739Z,91.60
2017-09-16T08:49:36.397Z,91.80
2017-09-16T08:52:11.021Z,92.50
2017-09-16T08:54:44.939Z,92.10
2017-09-16T08:57:18.684Z,91.80
2017-09-16T08:59:52.408Z,91.60
2017-09-16T09:02:27.312Z,91.30
2017-09-16T09:05:01.777Z,91.50
2017-09-16T09:07:35.611Z,91.50
2017-09-16T09:10:09.456Z,91.90
2017-09-16T09:12:43.159Z,91.90
2017-09-16T09:15:18.870Z,92.00
2017-09-16T09:17:53.378Z,92.20
2017-09-16T09:20:28.698Z,92.10
2017-09-16T09:23:02.347Z,91.90
2017-09-16T09:25:36.100Z,92.00
2017-09-16T09:28:10.851Z,92.70
2017-09-16T09:30:45.160Z,92.70
2017-09-16T09:33:19.737Z,92.20
2017-09-16T09:35:54.231Z,91.80
2017-09-16T09:38:27.915Z,91.80
2017-09-16T09:41:01.718Z,91.40
2017-09-16T09:43:35.644Z,91.40
2017-09-16T09:46:09.428Z,91.70
2017-09-16T09:48:44.274Z,91.10
2017-09-16T09:51:18.733Z,91.30
2017-09-16T09:53:54.038Z,91.90
2017-09-16T09:56:27.669Z,91.90
2017-09-16T09:59:01.359Z,91.10
2017-09-16T10:01:35.157Z,91.20
2017-09-16T10:04:08.929Z,91.10
2017-09-16T10:06:43.365Z,90.50
2017-09-16T10:09:17.093Z,90.50
2017-09-16T10:11:50.663Z,90.90
2017-09-16T10:14:24.555Z,90.70
2017-09-16T10:16:58.353Z,90.30
2017-09-16T10:19:32.999Z,90.90
2017-09-16T10:22:08.494Z,92.80
2017-09-16T10:24:42.095Z,92.70
2017-09-16T10:27:15.783Z,91.00
2017-09-16T10:29:49.475Z,91.30
2017-09-16T10:32:24.723Z,90.90
2017-09-16T10:34:58.496Z,91.50
2017-09-16T10:37:32.222Z,90.50
2017-09-16T10:40:06.835Z,89.30
2017-09-16T10:42:41.308Z,90.10
2017-09-16T10:45:14.985Z,90.10
2017-09-16T10:47:48.789Z,90.20
2017-09-16T10:50:23.426Z,90.10
2017-09-16T10:52:57.994Z,89.20
2017-09-16T10:55:32.608Z,89.00
2017-09-16T10:58:06.372Z,89.30
2017-09-16T11:00:40.061Z,88.10
2017-09-16T11:03:14.642Z,89.10
2017-09-16T11:05:49.251Z,89.00
2017-09-16T11:08:22.930Z,89.00
2017-09-16T11:10:58.073Z,87.70
2017-09-16T11:13:31.873Z,83.50
2017-09-16T11:16:05.606Z,86.60
2017-09-16T11:18:39.471Z,83.40
2017-09-16T11:21:14.115Z,80.10
2017-09-16T11:23:47.979Z,80.00
2017-09-16T11:26:23.897Z,84.50
2017-09-16T11:28:57.712Z,84.40
2017-09-16T11:31:32.683Z,81.00
2017-09-16T11:34:07.329Z,84.60
2017-09-16T11:36:41.001Z,84.50
2017-09-16T11:39:14.729Z,84.20
2017-09-16T11:41:48.363Z,82.10
2017-09-16T11:44:22.176Z,83.70
2017-09-16T11:46:55.971Z,82.90
2017-09-16T11:49:29.817Z,81.60
2017-09-16T11:52:03.658Z,80.60
2017-09-16T11:54:38.146Z,82.60
2017-09-16T11:57:11.936Z,82.40
2017-09-16T11:59:45.820Z,83.60
2017-09-16T12:02:19.573Z,81.70
2017-09-16T12:04:54.227Z,82.20
2017-09-16T12:07:28.087Z,82.20
2017-09-16T12:10:03.610Z,82.60
2017-09-16T12:12:38.507Z,82.40
2017-09-16T12:15:12.067Z,83.30
2017-09-16T12:17:45.619Z,83.10
2017-09-16T12:20:19.329Z,82.20
2017-09-16T12:22:53.752Z,84.90
2017-09-16T12:25:28.243Z,83.40
2017-09-16T12:28:02.781Z,81.70
2017-09-16T12:30:37.944Z,79.50
2017-09-16T12:33:12.320Z,83.70
2017-09-16T12:35:46.691Z,80.10
2017-09-16T12:38:20.348Z,80.00
2017-09-16T12:40:53.932Z,78.70
2017-09-16T12:43:28.506Z,81.40
2017-09-16T12:46:02.197Z,81.30
2017-09-16T12:48:37.143Z,80.80
2017-09-16T12:51:10.906Z,81.20
2017-09-16T12:53:44.525Z,82.10
2017-09-16T12:56:18.107Z,81.90
2017-09-16T12:58:52.657Z,77.90
2017-09-16T13:01:26.291Z,76.50
2017-09-16T13:04:00.854Z,76.50
2017-09-16T13:06:34.763Z,76.40
2017-09-16T13:09:08.636Z,77.40
2017-09-16T13:11:42.451Z,77.50
2017-09-16T13:14:16.964Z,73.70
2017-09-16T13:16:51.143Z,74.40
2017-09-16T13:19:24.875Z,74.80
2017-09-16T13:21:58.505Z,70.90
2017-09-16T13:24:32.839Z,71.90
2017-09-16T13:27:08.664Z,69.60
2017-09-16T13:29:42.198Z,69.70
2017-09-16T13:32:16.480Z,70.90
2017-09-16T13:34:50.221Z,73.60
2017-09-16T13:37:24.806Z,73.00
2017-09-16T13:39:58.689Z,69.80
2017-09-16T13:42:32.476Z,73.70
2017-09-16T13:45:06.991Z,73.70
2017-09-16T13:47:40.871Z,74.60
2017-09-16T13:50:14.577Z,69.90
2017-09-16T13:52:48.496Z,70.70
2017-09-16T13:55:22.227Z,74.40
2017-09-16T13:57:55.901Z,72.70
2017-09-16T14:00:29.736Z,73.10
2017-09-16T14:03:03.461Z,73.80
2017-09-16T14:05:37.295Z,75.10
2017-09-16T14:08:11.995Z,74.20
2017-09-16T14:10:45.679Z,75.50
2017-09-16T14:13:19.462Z,75.10
2017-09-16T14:15:53.207Z,75.70
2017-09-16T14:18:27.661Z,75.70
2017-09-16T14:21:02.140Z,75.60
2017-09-16T14:23:35.812Z,75.60
2017-09-16T14:26:09.405Z,72.90
2017-09-16T14:28:43.222Z,73.10
2017-09-16T14:31:17.036Z,73.30
2017-09-16T14:33:50.834Z,71.30
2017-09-16T14:36:26.699Z,69.10
2017-09-16T14:39:01.281Z,68.90
2017-09-16T14:41:35.081Z,70.60
2017-09-16T14:44:08.832Z,70.40
2017-09-16T14:46:43.018Z,71.20
2017-09-16T14:49:16.659Z,73.10
2017-09-16T14:51:50.278Z,73.70
2017-09-16T14:54:24.372Z,74.10
2017-09-16T14:56:58.897Z,74.80
2017-09-16T14:59:32.840Z,75.50
2017-09-16T15:02:12.250Z,74.00
2017-09-16T15:04:46.010Z,73.60
2017-09-16T15:07:19.854Z,72.60
2017-09-16T15:09:53.562Z,74.00
2017-09-16T15:12:27.213Z,71.80
2017-09-16T15:15:01.757Z,71.80
2017-09-16T15:17:35.484Z,73.60
2017-09-16T15:20:09.139Z,73.00
2017-09-16T15:22:42.920Z,71.30
2017-09-16T15:25:16.520Z,70.90
2017-09-16T15:27:50.907Z,70.20
2017-09-16T15:30:25.595Z,71.00
2017-09-16T15:32:59.935Z,72.70
2017-09-16T15:35:33.935Z,72.40
2017-09-16T15:38:07.611Z,71.90
2017-09-16T15:40:41.414Z,71.80
2017-09-16T15:43:15.921Z,72.00
2017-09-16T15:45:50.669Z,73.20
2017-09-16T15:48:25.391Z,73.60
2017-09-16T15:51:00.122Z,73.60
2017-09-16T15:53:34.066Z,73.90
2017-09-16T15:56:08.054Z,73.20
2017-09-16T15:58:42.471Z,74.90
2017-09-16T16:01:17.180Z,74.70
2017-09-16T16:03:50.999Z,74.50
2017-09-16T16:06:24.809Z,73.60
2017-09-16T16:08:58.518Z,74.10
2017-09-16T16:11:32.299Z,71.40
2017-09-16T16:14:06.691Z,71.70
2017-09-16T16:16:40.499Z,71.50
2017-09-16T16:19:14.131Z,73.80
2017-09-16T16:21:48.641Z,73.70
2017-09-16T16:24:23.091Z,73.00
2017-09-16T16:26:56.881Z,72.70
2017-09-16T16:29:30.713Z,73.10
2017-09-16T16:32:06.156Z,72.90
2017-09-16T16:34:40.044Z,74.00
2017-09-16T16:37:14.474Z,73.80
2017-09-16T16:39:48.232Z,73.80
2017-09-16T16:42:22.033Z,74.40
2017-09-16T16:44:56.815Z,75.30
2017-09-16T16:47:31.176Z,74.50
2017-09-16T16:50:05.817Z,74.40
2017-09-16T16:52:39.475Z,75.00
2017-09-16T16:55:13.247Z,74.80
2017-09-16T16:57:47.000Z,75.50
2017-09-16T17:00:20.703Z,75.40
2017-09-16T17:02:54.394Z,75.30
2017-09-16T17:05:28.239Z,74.90
2017-09-16T17:08:01.967Z,75.50
2017-09-16T17:10:35.779Z,75.40
2017-09-16T17:13:09.969Z,75.30
2017-09-16T17:15:43.752Z,75.10
2017-09-16T17:18:17.555Z,75.00
2017-09-16T17:20:52.307Z,75.10
2017-09-16T17:23:28.347Z,75.40
2017-09-16T17:26:02.133Z,75.30
2017-09-16T17:28:36.729Z,75.50
2017-09-16T17:31:10.568Z,75.40
2017-09-16T17:33:45.067Z,75.50
2017-09-16T17:36:19.615Z,75.40
2017-09-16T17:38:53.347Z,75.30
2017-09-16T17:41:27.537Z,75.00
2017-09-16T17:44:01.701Z,75.10
2017-09-16T17:46:35.367Z,75.20
2017-09-16T17:49:09.960Z,75.20
2017-09-16T17:51:44.353Z,75.10
2017-09-16T17:54:18.010Z,75.40
2017-09-16T17:56:52.508Z,75.50
2017-09-16T17:59:26.880Z,75.50
2017-09-16T18:02:01.396Z,75.30
2017-09-16T18:04:35.886Z,75.50
2017-09-16T18:07:10.222Z,75.40
2017-09-16T18:09:43.936Z,75.30
2017-09-16T18:12:18.460Z,75.50
2017-09-16T18:14:52.177Z,75.40
2017-09-16T18:17:26.007Z,75.10
2017-09-16T18:20:00.516Z,75.40
2017-09-16T18:22:34.336Z,75.30
2017-09-16T18:25:11.274Z,75.40
2017-09-16T18:27:45.064Z,75.40
2017-09-16T18:30:18.958Z,75.50
2017-09-16T18:32:52.763Z,75.60
2017-09-16T18:35:27.010Z,75.70
2017-09-16T18:38:00.905Z,75.70
2017-09-16T18:40:35.600Z,76.90
2017-09-16T18:43:10.246Z,75.90
2017-09-16T18:45:44.609Z,76.10
2017-09-16T18:48:18.985Z,76.10
2017-09-16T18:50:53.070Z,76.10
2017-09-16T18:53:26.864Z,76.10
2017-09-16T18:56:00.561Z,75.90
2017-09-16T18:58:34.172Z,76.00
2017-09-16T19:01:08.031Z,76.10
2017-09-16T19:03:41.733Z,75.90
2017-09-16T19:06:16.406Z,75.70
2017-09-16T19:08:50.236Z,75.40
2017-09-16T19:11:23.957Z,75.30
2017-09-16T19:13:57.766Z,75.30
2017-09-16T19:16:31.484Z,75.20
2017-09-16T19:19:05.238Z,75.10
2017-09-16T19:21:39.967Z,75.20
2017-09-16T19:24:13.755Z,75.50
2017-09-16T19:26:47.460Z,75.70
2017-09-16T19:29:21.889Z,76.20
2017-09-16T19:31:56.348Z,76.60
2017-09-16T19:34:29.968Z,76.60
2017-09-16T19:37:03.747Z,76.60
2017-09-16T19:39:37.642Z,76.60
2017-09-16T19:42:12.306Z,76.60
2017-09-16T19:44:46.023Z,76.40
2017-09-16T19:47:19.660Z,76.90
2017-09-16T19:49:53.374Z,76.90
2017-09-16T19:52:27.168Z,76.80
2017-09-16T19:55:01.086Z,76.90
2017-09-16T19:57:34.937Z,76.90
2017-09-16T20:00:08.610Z,76.80
2017-09-16T20:02:42.346Z,76.60
2017-09-16T20:05:16.916Z,76.70
2017-09-16T20:07:51.380Z,77.70
2017-09-16T20:10:25.189Z,76.70
2017-09-16T20:12:59.003Z,76.80
2017-09-16T20:15:32.630Z,76.80
2017-09-16T20:18:06.478Z,77.00
2017-09-16T20:20:40.264Z,76.90
2017-09-16T20:23:14.803Z,76.50
2017-09-16T20:25:48.621Z,76.40
2017-09-16T20:28:22.421Z,76.30
2017-09-16T20:30:56.175Z,76.50
2017-09-16T20:33:30.622Z,76.40
2017-09-16T20:36:04.353Z,76.30
2017-09-16T20:38:38.151Z,76.00
2017-09-16T20:41:11.981Z,75.80
2017-09-16T20:43:45.667Z,75.40
2017-09-16T20:46:19.207Z,75.50
2017-09-16T20:48:53.870Z,75.70
2017-09-16T20:51:27.598Z,76.20
2017-09-16T20:54:02.102Z,78.70
2017-09-16T20:56:36.088Z,78.60
2017-09-16T20:59:09.880Z,79.00
2017-09-16T21:01:44.364Z,78.30
2017-09-16T21:04:18.016Z,77.50
2017-09-16T21:06:51.768Z,77.90
2017-09-16T21:09:25.561Z,77.20
2017-09-16T21:12:00.240Z,76.60
2017-09-16T21:14:34.777Z,76.70
2017-09-16T21:17:08.525Z,76.50
2017-09-16T21:19:42.266Z,76.50
2017-09-16T21:22:16.090Z,76.40
2017-09-16T21:24:49.934Z,76.50
2017-09-16T21:27:23.794Z,76.30
2017-09-16T21:29:58.223Z,76.00
2017-09-16T21:32:32.060Z,76.10
2017-09-16T21:35:05.649Z,76.00
2017-09-16T21:37:39.540Z,76.00
2017-09-16T21:40:13.415Z,76.10
2017-09-16T21:42:47.244Z,76.40
2017-09-16T21:45:21.163Z,76.60
2017-09-16T21:47:55.469Z,76.60
2017-09-16T21:50:29.284Z,76.70
2017-09-16T21:53:03.927Z,76.80
2017-09-16T21:55:37.879Z,76.70
2017-09-16T21:58:11.579Z,76.50
2017-09-16T22:00:45.333Z,76.70
2017-09-16T22:03:19.893Z,76.80
2017-09-16T22:05:53.698Z,76.60
2017-09-16T22:08:27.478Z,76.60
2017-09-16T22:11:01.354Z,76.80
2017-09-16T22:13:35.271Z,77.50
2017-09-16T22:16:09.034Z,78.10
2017-09-16T22:18:42.965Z,77.90
2017-09-16T22:21:17.362Z,78.40
2017-09-16T22:23:51.156Z,78.30
2017-09-16T22:26:24.944Z,78.20
2017-09-16T22:28:59.709Z,78.00
2017-09-16T22:31:33.523Z,78.00
2017-09-16T22:34:07.362Z,78.20
2017-09-16T22:36:41.898Z,78.20
2017-09-16T22:39:15.889Z,78.60
2017-09-16T22:41:49.785Z,78.50
2017-09-16T22:44:23.465Z,78.70
2017-09-16T22:46:57.231Z,79.50
2017-09-16T22:49:31.105Z,79.70
2017-09-16T22:52:05.614Z,79.10
2017-09-16T22:54:39.438Z,78.90
2017-09-16T22:57:13.204Z,78.90
2017-09-16T22:59:47.011Z,78.70
2017-09-16T23:02:20.835Z,79.20
2017-09-16T23:04:54.552Z,79.30
2017-09-16T23:07:28.339Z,79.20
2017-09-16T23:10:02.186Z,79.20
2017-09-16T23:12:36.035Z,79.10
2017-09-16T23:15:09.840Z,79.10
2017-09-16T23:17:43.563Z,79.20
2017-09-16T23:20:17.190Z,78.90
2017-09-16T23:22:51.853Z,79.00
2017-09-16T23:25:25.571Z,78.80
2017-09-16T23:27:59.292Z,79.50
2017-09-16T23:30:33.556Z,79.30
2017-09-16T23:33:07.220Z,79.10
2017-09-16T23:35:40.823Z,79.40
2017-09-16T23:38:14.491Z,79.80
2017-09-16T23:40:48.918Z,79.40
2017-09-16T23:43:22.472Z,79.90
2017-09-16T23:45:56.338Z,79.00
2017-09-16T23:48:30.112Z,80.60
2017-09-16T23:51:04.226Z,81.10
2017-09-16T23:53:37.952Z,81.30
2017-09-16T23:56:12.035Z,80.90
2017-09-16T23:58:46.324Z,79.50
